createdAt,value
2023-01-26T00:00:42.695Z,17.43
2023-01-26T00:05:46.106Z,19.13
2023-01-26T00:10:53.713Z,22.20
2023-01-26T00:15:59.176Z,19.00
2023-01-26T00:21:04.273Z,18.67
2023-01-26T00:26:10.203Z,18.20
2023-01-26T00:31:15.642Z,16.73
2023-01-26T00:36:19.652Z,23.20
2023-01-26T00:41:42.183Z,19.47
2023-01-26T00:46:45.520Z,20.33
2023-01-26T00:51:49.144Z,20.77
2023-01-26T00:56:55.044Z,21.77
2023-01-26T01:02:04.824Z,20.07
2023-01-26T01:07:08.213Z,22.67
2023-01-26T01:12:13.049Z,20.60
2023-01-26T01:17:16.516Z,20.80
2023-01-26T01:22:21.917Z,20.10
2023-01-26T01:27:27.673Z,29.37
2023-01-26T01:32:31.094Z,20.73
2023-01-26T01:37:36.958Z,24.63
2023-01-26T01:42:48.151Z,23.90
2023-01-26T01:47:51.778Z,22.90
2023-01-26T01:52:57.254Z,22.53
2023-01-26T01:58:04.660Z,22.53
2023-01-26T02:03:14.999Z,22.93
2023-01-26T02:08:23.359Z,24.03
2023-01-26T02:13:29.623Z,23.20
2023-01-26T02:18:34.196Z,26.67
2023-01-26T02:23:51.358Z,25.07
2023-01-26T02:28:58.417Z,21.70
2023-01-26T02:34:01.672Z,22.37
2023-01-26T02:39:22.001Z,22.57
2023-01-26T02:44:27.525Z,20.73
2023-01-26T02:49:50.801Z,22.93
2023-01-26T02:55:14.657Z,21.60
2023-01-26T03:00:22.530Z,20.37
2023-01-26T03:05:27.237Z,19.30
2023-01-26T03:10:30.659Z,19.97
2023-01-26T03:15:43.067Z,18.83
2023-01-26T03:21:03.773Z,20.33
2023-01-26T03:26:29.465Z,22.37
2023-01-26T03:31:34.248Z,24.37
2023-01-26T03:36:39.151Z,25.63
2023-01-26T03:41:59.740Z,27.17
2023-01-26T03:47:22.489Z,24.07
2023-01-26T03:52:44.570Z,25.63
2023-01-26T03:57:49.571Z,18.93
2023-01-26T04:03:12.029Z,25.57
2023-01-26T04:08:24.761Z,24.40
2023-01-26T04:13:47.515Z,28.10
2023-01-26T04:19:11.077Z,26.77
2023-01-26T04:24:17.133Z,26.13
2023-01-26T04:29:20.717Z,30.23
2023-01-26T04:34:25.502Z,25.20
2023-01-26T04:39:32.093Z,29.17
2023-01-26T04:44:35.575Z,27.67
2023-01-26T04:55:13.095Z,24.70
2023-01-26T05:00:16.900Z,27.63
2023-01-26T05:05:22.581Z,26.20
2023-01-26T05:10:26.916Z,26.30
2023-01-26T05:15:30.337Z,28.77
2023-01-26T05:20:36.197Z,25.40
2023-01-26T05:25:39.583Z,25.17
2023-01-26T05:30:43.104Z,22.33
2023-01-26T05:35:48.286Z,23.20
2023-01-26T05:40:52.701Z,24.00
2023-01-26T05:45:56.098Z,25.30
2023-01-26T05:51:03.030Z,28.07
2023-01-26T05:56:07.570Z,24.40
2023-01-26T06:01:10.991Z,23.30
2023-01-26T06:06:16.928Z,26.77
2023-01-26T06:11:22.268Z,26.37
2023-01-26T06:16:25.656Z,26.97
2023-01-26T06:21:32.793Z,28.33
2023-01-26T06:26:38.179Z,34.60
2023-01-26T06:31:41.739Z,30.77
2023-01-26T06:36:46.600Z,27.47
2023-01-26T06:41:50.962Z,23.67
2023-01-26T06:46:54.373Z,26.67
2023-01-26T06:52:03.729Z,21.93
2023-01-26T06:57:10.064Z,21.37
2023-01-26T07:02:18.568Z,20.23
2023-01-26T07:07:23.435Z,22.17
2023-01-26T07:12:26.813Z,20.60
2023-01-26T07:17:30.212Z,29.77
2023-01-26T07:22:34.946Z,19.47
2023-01-26T07:27:38.179Z,23.70
2023-01-26T07:32:42.215Z,22.90
2023-01-26T07:37:46.753Z,19.50
2023-01-26T07:42:50.032Z,30.90
2023-01-26T07:47:55.347Z,26.80
2023-01-26T07:53:01.640Z,29.17
2023-01-26T07:58:04.906Z,27.33
2023-01-26T08:03:08.461Z,24.60
2023-01-26T08:08:13.159Z,24.93
2023-01-26T08:13:23.543Z,26.87
2023-01-26T08:18:29.843Z,27.77
2023-01-26T08:23:35.085Z,22.40
2023-01-26T08:28:38.701Z,25.37
2023-01-26T08:33:43.100Z,23.17
2023-01-26T08:38:47.796Z,20.00
2023-01-26T08:43:53.063Z,21.77
2023-01-26T08:48:57.285Z,17.67
2023-01-26T08:54:03.401Z,23.27
2023-01-26T08:59:06.617Z,19.67
2023-01-26T09:04:09.925Z,17.73
2023-01-26T09:09:15.519Z,23.27
2023-01-26T09:14:18.781Z,14.80
2023-01-26T09:19:22.177Z,19.00
2023-01-26T09:24:27.074Z,17.63
2023-01-26T09:29:30.555Z,22.10
2023-01-26T09:34:33.932Z,18.00
2023-01-26T09:39:38.628Z,14.83
2023-01-26T09:44:49.367Z,14.90
2023-01-26T09:50:01.074Z,12.00
2023-01-26T09:55:15.248Z,12.83
2023-01-26T10:00:23.530Z,13.07
2023-01-26T10:05:38.577Z,17.10
2023-01-26T10:10:48.883Z,13.80
2023-01-26T10:15:58.445Z,13.97
2023-01-26T10:21:05.273Z,15.73
2023-01-26T10:26:14.409Z,14.53
2023-01-26T10:31:20.668Z,12.87
2023-01-26T10:36:24.429Z,12.63
2023-01-26T10:41:30.168Z,13.47
2023-01-26T10:46:35.943Z,17.03
2023-01-26T10:51:41.753Z,10.77
2023-01-26T10:56:52.769Z,12.63
2023-01-26T11:01:58.007Z,10.90
2023-01-26T11:07:26.535Z,14.20
2023-01-26T11:12:32.662Z,13.33
2023-01-26T11:17:39.929Z,14.63
2023-01-26T11:22:47.616Z,12.30
2023-01-26T11:28:09.176Z,16.03
2023-01-26T11:33:24.400Z,19.30
2023-01-26T11:38:37.277Z,12.07
2023-01-26T11:44:21.121Z,15.80
2023-01-26T11:49:39.482Z,14.00
2023-01-26T11:55:07.148Z,10.97
2023-01-26T12:00:29.644Z,16.07
2023-01-26T12:05:43.316Z,13.03
2023-01-26T12:10:52.224Z,17.97
2023-01-26T12:16:01.081Z,16.73
2023-01-26T12:21:08.844Z,13.63
2023-01-26T12:26:16.270Z,12.00
2023-01-26T12:31:26.813Z,10.80
2023-01-26T12:36:43.858Z,16.30
2023-01-26T12:42:04.356Z,13.43
2023-01-26T12:47:18.753Z,13.53
2023-01-26T12:52:27.924Z,14.17
2023-01-26T12:57:37.816Z,14.50
2023-01-26T13:02:47.922Z,15.73
2023-01-26T13:07:51.262Z,15.30
2023-01-26T13:12:56.872Z,20.77
2023-01-26T13:18:03.043Z,23.07
2023-01-26T13:23:52.829Z,17.53
2023-01-26T13:29:31.888Z,32.43
2023-01-26T13:34:40.529Z,29.13
2023-01-26T13:39:49.207Z,17.83
2023-01-26T13:44:59.033Z,14.67
2023-01-26T13:50:22.153Z,17.03
2023-01-26T13:55:27.789Z,14.17
2023-01-26T14:00:31.183Z,13.17
2023-01-26T14:05:36.919Z,10.67
2023-01-26T14:10:44.046Z,12.47
2023-01-26T14:15:57.616Z,15.90
2023-01-26T14:21:05.306Z,15.77
2023-01-26T14:26:18.954Z,14.70
2023-01-26T14:31:24.569Z,15.20
2023-01-26T14:36:33.206Z,15.33
2023-01-26T14:41:38.150Z,16.83
2023-01-26T14:46:58.655Z,20.47
2023-01-26T14:52:03.501Z,13.37
2023-01-26T14:57:09.659Z,14.07
2023-01-26T15:02:17.995Z,16.87
2023-01-26T15:07:37.491Z,14.50
2023-01-26T15:12:41.646Z,13.47
2023-01-26T15:17:45.035Z,13.20
2023-01-26T15:22:52.815Z,15.67
2023-01-26T15:27:59.064Z,12.77
2023-01-26T15:33:04.628Z,13.20
2023-01-26T15:38:11.744Z,14.67
2023-01-26T15:43:15.791Z,12.57
2023-01-26T15:48:19.283Z,18.13
2023-01-26T15:53:25.158Z,15.50
2023-01-26T15:58:29.005Z,20.57
2023-01-26T16:03:32.218Z,14.03
2023-01-26T16:08:36.897Z,15.10
2023-01-26T16:13:48.500Z,16.17
2023-01-26T16:18:58.437Z,15.23
2023-01-26T16:24:04.106Z,15.97
2023-01-26T16:29:07.429Z,18.43
2023-01-26T16:34:11.400Z,19.30
2023-01-26T16:39:16.434Z,21.43
2023-01-26T16:44:19.721Z,17.83
2023-01-26T16:49:24.665Z,20.47
2023-01-26T16:54:32.022Z,16.83
2023-01-26T16:59:35.393Z,17.60
2023-01-26T17:04:38.714Z,19.23
2023-01-26T17:09:44.384Z,20.27
2023-01-26T17:14:47.656Z,18.33
2023-01-26T17:19:51.290Z,19.13
2023-01-26T17:24:58.728Z,16.93
2023-01-26T17:30:02.129Z,20.83
2023-01-26T17:35:06.106Z,21.97
2023-01-26T17:40:12.264Z,21.90
2023-01-26T17:45:18.803Z,18.20
2023-01-26T17:50:22.104Z,26.03
2023-01-26T17:55:26.916Z,23.80
2023-01-26T18:00:38.262Z,30.97
2023-01-26T18:05:51.952Z,21.93
2023-01-26T18:11:04.359Z,21.10
2023-01-26T18:16:10.086Z,22.10
2023-01-26T18:21:23.701Z,18.60
2023-01-26T18:26:32.712Z,18.70
2023-01-26T18:31:40.903Z,16.67
2023-01-26T18:36:48.387Z,22.27
2023-01-26T18:42:01.427Z,20.70
2023-01-26T18:47:07.333Z,21.43
2023-01-26T18:52:11.807Z,22.13
2023-01-26T18:57:18.053Z,17.83
2023-01-26T19:02:25.174Z,19.63
2023-01-26T19:07:33.026Z,21.40
2023-01-26T19:12:37.923Z,27.93
2023-01-26T19:17:45.499Z,28.33
2023-01-26T19:23:27.036Z,20.33
2023-01-26T19:28:31.970Z,18.23
2023-01-26T19:33:38.119Z,28.40
2023-01-26T19:38:42.622Z,22.03
2023-01-26T19:43:47.550Z,23.23
2023-01-26T19:48:52.047Z,27.10
2023-01-26T19:53:57.766Z,22.47
2023-01-26T19:59:05.289Z,19.37
2023-01-26T20:04:16.334Z,28.73
2023-01-26T20:09:27.646Z,26.70
2023-01-26T20:14:32.971Z,17.33
2023-01-26T20:19:49.944Z,16.37
2023-01-26T20:24:57.423Z,15.03
2023-01-26T20:30:10.237Z,14.83
2023-01-26T20:35:15.656Z,18.13
2023-01-26T20:40:26.111Z,19.97
2023-01-26T20:45:41.823Z,15.13
2023-01-26T20:50:45.207Z,17.27
2023-01-26T20:55:58.907Z,19.77
2023-01-26T21:01:21.163Z,17.93
2023-01-26T21:06:35.473Z,16.07
2023-01-26T21:11:42.905Z,18.60
2023-01-26T21:17:00.441Z,17.47
2023-01-26T21:22:05.095Z,23.37
2023-01-26T21:27:08.585Z,14.70
2023-01-26T21:32:18.865Z,16.63
2023-01-26T21:37:29.674Z,17.63
2023-01-26T21:42:37.041Z,21.17
2023-01-26T21:48:09.201Z,21.30
2023-01-26T21:53:13.942Z,23.87
2023-01-26T21:58:34.935Z,23.23
2023-01-26T22:04:01.800Z,23.43
2023-01-26T22:09:06.939Z,17.37
2023-01-26T22:14:15.546Z,18.03
2023-01-26T22:19:22.268Z,17.97
2023-01-26T22:24:26.728Z,22.17
2023-01-26T22:29:32.726Z,16.77
2023-01-26T22:34:37.830Z,22.60
2023-01-26T22:39:41.555Z,18.37
2023-01-26T22:44:49.120Z,20.27
2023-01-26T22:49:53.916Z,17.47
2023-01-26T22:55:02.580Z,18.57
2023-01-26T23:00:14.835Z,19.73
2023-01-26T23:06:09.356Z,19.10
2023-01-26T23:11:17.308Z,20.37
2023-01-26T23:16:27.141Z,17.03
2023-01-26T23:21:36.621Z,15.87
2023-01-26T23:26:47.723Z,17.67
2023-01-26T23:32:17.641Z,20.03
2023-01-26T23:37:22.927Z,19.97
2023-01-26T23:42:37.962Z,19.40
2023-01-26T23:48:08.515Z,23.10
2023-01-26T23:53:12.347Z,23.83
2023-01-26T23:58:17.082Z,21.70
